createdAt,value
2018-12-10T00:01:03.195Z,23.16
2018-12-10T00:03:35.259Z,23.19
2018-12-10T00:06:03.886Z,23.20
2018-12-10T00:08:32.434Z,23.21
2018-12-10T00:11:01.115Z,23.20
2018-12-10T00:13:29.796Z,23.20
2018-12-10T00:15:58.233Z,23.19
2018-12-10T00:18:27.034Z,23.20
2018-12-10T00:20:55.450Z,23.20
2018-12-10T00:23:24.190Z,23.22
2018-12-10T00:25:52.854Z,23.27
2018-12-10T00:28:21.486Z,23.27
2018-12-10T00:30:50.268Z,23.25
2018-12-10T00:33:19.165Z,23.25
2018-12-10T00:35:47.842Z,23.25
2018-12-10T00:38:16.450Z,23.25
2018-12-10T00:40:45.131Z,23.23
2018-12-10T00:43:13.686Z,23.23
2018-12-10T00:45:42.367Z,23.25
2018-12-10T00:48:11.002Z,23.23
2018-12-10T00:50:39.541Z,23.23
2018-12-10T00:53:08.286Z,23.26
2018-12-10T00:55:36.946Z,23.27
2018-12-10T00:58:05.616Z,23.28
2018-12-10T01:00:34.221Z,23.26
2018-12-10T01:03:03.222Z,23.26
2018-12-10T01:05:31.950Z,23.27
2018-12-10T01:08:00.619Z,23.25
2018-12-10T01:10:29.223Z,23.27
2018-12-10T01:12:57.794Z,23.29
2018-12-10T01:15:26.340Z,23.27
2018-12-10T01:17:55.083Z,23.29
2018-12-10T01:20:23.687Z,23.29
2018-12-10T01:22:52.102Z,23.26
2018-12-10T01:25:20.834Z,23.29
2018-12-10T01:27:49.514Z,23.31
2018-12-10T01:30:18.178Z,23.30
2018-12-10T01:32:46.770Z,23.30
2018-12-10T01:35:15.430Z,23.31
2018-12-10T01:37:44.156Z,23.33
2018-12-10T01:40:12.798Z,23.33
2018-12-10T01:42:41.214Z,23.33
2018-12-10T01:45:09.889Z,23.34
2018-12-10T01:47:38.559Z,23.35
2018-12-10T01:50:07.138Z,23.34
2018-12-10T01:52:35.725Z,23.35
2018-12-10T01:55:04.450Z,23.34
2018-12-10T01:57:33.134Z,23.36
2018-12-10T02:00:01.743Z,23.37
2018-12-10T02:02:30.410Z,23.36
2018-12-10T02:04:59.128Z,23.42
2018-12-10T02:07:27.874Z,23.39
2018-12-10T02:09:56.526Z,23.41
2018-12-10T02:12:25.140Z,23.39
2018-12-10T02:14:53.718Z,23.41
2018-12-10T02:17:22.510Z,23.40
2018-12-10T02:19:51.371Z,23.42
2018-12-10T02:22:19.991Z,23.39
2018-12-10T02:24:48.680Z,23.43
2018-12-10T02:27:17.103Z,23.41
2018-12-10T02:29:45.986Z,23.42
2018-12-10T02:32:14.658Z,23.41
2018-12-10T02:34:43.399Z,23.41
2018-12-10T02:37:12.010Z,23.43
2018-12-10T02:39:40.731Z,23.43
2018-12-10T02:42:09.391Z,23.45
2018-12-10T02:44:38.138Z,23.46
2018-12-10T02:47:06.910Z,23.47
2018-12-10T02:49:35.834Z,23.46
2018-12-10T02:52:04.383Z,23.44
2018-12-10T02:54:33.184Z,23.46
2018-12-10T02:57:01.852Z,23.46
2018-12-10T02:59:30.615Z,23.46
2018-12-10T03:01:59.350Z,23.46
2018-12-10T03:04:27.901Z,23.47
2018-12-10T03:06:56.642Z,23.47
2018-12-10T03:09:25.774Z,23.46
2018-12-10T03:11:54.321Z,23.44
2018-12-10T03:14:22.990Z,23.43
2018-12-10T03:16:51.604Z,23.46
2018-12-10T03:19:20.373Z,23.46
2018-12-10T03:21:49.060Z,23.46
2018-12-10T03:24:17.764Z,23.46
2018-12-10T03:26:46.315Z,23.48
2018-12-10T03:29:15.130Z,23.47
2018-12-10T03:31:43.724Z,23.46
2018-12-10T03:34:12.380Z,23.47
2018-12-10T03:36:40.808Z,23.48
2018-12-10T03:39:09.638Z,23.47
2018-12-10T03:41:38.167Z,23.47
2018-12-10T03:44:06.707Z,23.50
2018-12-10T03:46:35.272Z,23.49
2018-12-10T03:49:04.098Z,23.48
2018-12-10T03:51:32.645Z,23.50
2018-12-10T03:54:01.224Z,23.50
2018-12-10T03:56:29.786Z,23.49
2018-12-10T03:58:58.780Z,23.48
2018-12-10T04:01:27.585Z,23.49
2018-12-10T04:03:56.251Z,23.51
2018-12-10T04:06:24.996Z,23.49
2018-12-10T04:08:54.011Z,23.51
2018-12-10T04:11:22.568Z,23.52
2018-12-10T04:13:51.258Z,23.52
2018-12-10T04:16:19.870Z,23.51
2018-12-10T04:18:48.782Z,23.50
2018-12-10T04:21:17.522Z,23.54
2018-12-10T04:23:46.258Z,23.52
2018-12-10T04:26:14.968Z,23.50
2018-12-10T04:28:43.882Z,23.52
2018-12-10T04:31:12.447Z,23.52
2018-12-10T04:33:40.890Z,23.52
2018-12-10T04:36:09.638Z,23.51
2018-12-10T04:38:38.647Z,23.50
2018-12-10T04:41:07.315Z,23.52
2018-12-10T04:43:35.951Z,23.52
2018-12-10T04:46:04.693Z,23.53
2018-12-10T04:48:33.729Z,23.55
2018-12-10T04:51:02.471Z,23.55
2018-12-10T04:53:31.162Z,23.51
2018-12-10T04:55:59.898Z,23.54
2018-12-10T04:58:28.434Z,23.51
2018-12-10T05:00:57.169Z,23.52
2018-12-10T05:03:25.888Z,23.54
2018-12-10T05:05:54.563Z,23.55
2018-12-10T05:08:23.395Z,23.56
2018-12-10T05:10:52.180Z,23.56
2018-12-10T05:13:20.743Z,23.55
2018-12-10T05:15:49.612Z,23.56
2018-12-10T05:18:18.630Z,23.54
2018-12-10T05:20:47.317Z,23.55
2018-12-10T05:23:15.919Z,23.60
2018-12-10T05:25:44.603Z,23.57
2018-12-10T05:28:13.533Z,23.57
2018-12-10T05:30:42.062Z,23.57
2018-12-10T05:33:10.610Z,23.58
2018-12-10T05:35:39.162Z,23.54
2018-12-10T05:38:07.775Z,23.56
2018-12-10T05:40:36.388Z,23.56
2018-12-10T05:43:05.055Z,23.58
2018-12-10T05:45:33.788Z,23.58
2018-12-10T05:48:02.539Z,23.58
2018-12-10T05:50:31.130Z,23.58
2018-12-10T05:52:59.939Z,23.59
2018-12-10T05:55:28.681Z,23.58
2018-12-10T05:57:57.514Z,23.58
2018-12-10T06:00:26.158Z,23.58
2018-12-10T06:02:54.754Z,23.58
2018-12-10T06:05:23.474Z,23.62
2018-12-10T06:07:51.946Z,23.58
2018-12-10T06:10:20.882Z,23.61
2018-12-10T06:12:49.740Z,23.58
2018-12-10T06:15:18.567Z,23.59
2018-12-10T06:17:47.259Z,23.57
2018-12-10T06:20:15.868Z,23.62
2018-12-10T06:22:44.615Z,23.61
2018-12-10T06:25:13.315Z,23.62
2018-12-10T06:27:41.880Z,23.61
2018-12-10T06:30:10.822Z,23.62
2018-12-10T06:32:39.570Z,23.59
2018-12-10T06:35:08.277Z,23.57
2018-12-10T06:37:37.651Z,23.58
2018-12-10T06:40:20.719Z,23.58
2018-12-10T06:42:49.734Z,23.60
2018-12-10T06:45:18.431Z,23.61
2018-12-10T06:47:47.167Z,23.60
2018-12-10T06:50:15.802Z,23.59
2018-12-10T06:52:44.527Z,23.61
2018-12-10T06:55:13.203Z,23.59
2018-12-10T06:57:41.711Z,23.63
2018-12-10T07:00:11.934Z,23.62
2018-12-10T07:02:40.418Z,23.61
2018-12-10T07:05:08.922Z,23.60
2018-12-10T07:07:37.650Z,23.59
2018-12-10T07:10:07.775Z,23.60
2018-12-10T07:12:36.426Z,23.57
2018-12-10T07:15:06.044Z,23.58
2018-12-10T07:17:34.750Z,23.55
2018-12-10T07:20:03.245Z,23.56
2018-12-10T07:22:31.922Z,23.57
2018-12-10T07:25:00.537Z,23.55
2018-12-10T07:27:29.281Z,23.56
2018-12-10T07:29:57.977Z,23.56
2018-12-10T07:32:26.443Z,23.58
2018-12-10T07:34:55.194Z,23.57
2018-12-10T07:37:23.945Z,23.56
2018-12-10T07:39:52.563Z,23.53
2018-12-10T07:42:21.403Z,23.54
2018-12-10T07:44:50.142Z,23.54
2018-12-10T07:47:18.715Z,23.51
2018-12-10T07:49:47.467Z,23.44
2018-12-10T07:52:16.030Z,23.45
2018-12-10T07:54:44.755Z,23.47
2018-12-10T07:57:13.433Z,23.39
2018-12-10T07:59:42.145Z,23.36
2018-12-10T08:02:10.854Z,23.32
2018-12-10T08:04:39.487Z,23.38
2018-12-10T08:07:08.175Z,23.36
2018-12-10T08:09:36.866Z,23.40
2018-12-10T08:12:05.471Z,23.38
2018-12-10T08:14:34.104Z,23.53
2018-12-10T08:17:02.833Z,23.54
2018-12-10T08:19:31.410Z,23.55
2018-12-10T08:22:00.123Z,23.55
2018-12-10T08:24:28.835Z,23.53
2018-12-10T08:26:57.603Z,23.48
2018-12-10T08:29:26.491Z,23.44
2018-12-10T08:31:55.094Z,23.43
2018-12-10T08:34:23.650Z,23.44
2018-12-10T08:36:52.595Z,23.47
2018-12-10T08:39:21.343Z,23.41
2018-12-10T08:41:50.127Z,23.46
2018-12-10T08:44:18.783Z,23.43
2018-12-10T08:46:47.526Z,23.48
2018-12-10T08:49:16.545Z,23.47
2018-12-10T08:51:45.098Z,23.46
2018-12-10T08:54:13.826Z,23.46
2018-12-10T08:56:42.670Z,23.48
2018-12-10T08:59:11.400Z,23.45
2018-12-10T09:01:40.143Z,23.38
2018-12-10T09:04:09.694Z,23.42
2018-12-10T09:06:38.251Z,23.43
2018-12-10T09:09:07.214Z,23.46
2018-12-10T09:11:35.856Z,23.48
2018-12-10T09:14:04.478Z,23.47
2018-12-10T09:16:33.044Z,23.48
2018-12-10T09:19:02.484Z,23.50
2018-12-10T09:21:31.292Z,23.50
2018-12-10T09:23:59.968Z,23.53
2018-12-10T09:26:28.683Z,23.51
2018-12-10T09:28:57.526Z,23.50
2018-12-10T09:31:26.251Z,23.54
2018-12-10T09:33:54.939Z,23.54
2018-12-10T09:36:23.718Z,23.53
2018-12-10T09:38:52.387Z,23.54
2018-12-10T09:41:21.177Z,23.52
2018-12-10T09:43:49.914Z,23.53
2018-12-10T09:46:18.568Z,23.55
2018-12-10T09:48:47.450Z,23.56
2018-12-10T09:51:16.166Z,23.57
2018-12-10T09:53:44.703Z,23.61
2018-12-10T09:56:13.398Z,23.58
2018-12-10T09:58:41.934Z,23.58
2018-12-10T10:01:10.614Z,23.56
2018-12-10T10:03:39.202Z,23.57
2018-12-10T10:06:07.761Z,23.62
2018-12-10T10:08:36.456Z,23.61
2018-12-10T10:11:05.254Z,23.60
2018-12-10T10:13:34.032Z,23.58
2018-12-10T10:16:02.571Z,23.61
2018-12-10T10:18:31.270Z,23.59
2018-12-10T10:21:00.362Z,23.61
2018-12-10T10:23:29.146Z,23.59
2018-12-10T10:25:57.978Z,23.61
2018-12-10T10:28:26.894Z,23.63
2018-12-10T10:30:55.494Z,23.61
2018-12-10T10:33:32.168Z,23.61
2018-12-10T10:35:54.789Z,23.60
2018-12-10T10:38:23.631Z,23.62
2018-12-10T10:40:52.230Z,23.62
2018-12-10T10:43:20.767Z,23.64
2018-12-10T10:45:49.339Z,23.63
2018-12-10T10:48:18.094Z,23.61
2018-12-10T10:50:46.715Z,23.59
2018-12-10T10:53:15.375Z,23.62
2018-12-10T10:55:43.898Z,23.63
2018-12-10T10:58:12.775Z,23.64
2018-12-10T11:00:46.406Z,23.62
2018-12-10T11:03:20.227Z,23.66
2018-12-10T11:05:48.886Z,23.61
2018-12-10T11:08:17.593Z,23.60
2018-12-10T11:10:46.147Z,23.61
2018-12-10T11:13:14.594Z,23.65
2018-12-10T11:15:43.210Z,23.63
2018-12-10T11:18:11.802Z,23.62
2018-12-10T11:20:40.624Z,23.63
2018-12-10T11:23:09.786Z,23.65
2018-12-10T11:25:38.391Z,23.61
2018-12-10T11:28:07.079Z,23.64
2018-12-10T11:30:35.645Z,23.62
2018-12-10T11:33:04.382Z,23.62
2018-12-10T11:35:32.985Z,23.63
2018-12-10T11:38:01.650Z,23.63
2018-12-10T11:40:30.422Z,23.65
2018-12-10T11:42:58.989Z,23.60
2018-12-10T11:45:27.514Z,23.66
2018-12-10T11:47:56.090Z,23.61
2018-12-10T11:50:24.593Z,23.61
2018-12-10T11:52:53.336Z,23.59
2018-12-10T11:55:21.987Z,23.62
2018-12-10T11:57:50.686Z,23.63
2018-12-10T12:00:19.254Z,23.63
2018-12-10T12:02:47.915Z,23.62
2018-12-10T12:05:16.674Z,23.62
2018-12-10T12:07:45.311Z,23.62
2018-12-10T12:10:13.922Z,23.63
2018-12-10T12:12:42.503Z,23.63
2018-12-10T12:15:11.258Z,23.63
2018-12-10T12:17:39.819Z,23.57
2018-12-10T12:20:09.658Z,23.62
2018-12-10T12:22:38.314Z,23.61
2018-12-10T12:25:07.395Z,23.60
2018-12-10T12:27:36.146Z,23.61
2018-12-10T12:30:05.303Z,23.61
2018-12-10T12:32:33.850Z,23.62
2018-12-10T12:35:02.315Z,23.64
2018-12-10T12:37:30.934Z,23.63
2018-12-10T12:39:59.646Z,23.63
2018-12-10T12:42:28.355Z,23.58
2018-12-10T12:44:56.968Z,23.58
2018-12-10T12:47:25.658Z,23.61
2018-12-10T12:49:54.242Z,23.61
2018-12-10T12:52:22.798Z,23.61
2018-12-10T12:54:51.522Z,23.61
2018-12-10T12:57:20.022Z,23.58
2018-12-10T12:59:48.779Z,23.61
2018-12-10T13:02:17.386Z,23.62
2018-12-10T13:04:45.870Z,23.57
2018-12-10T13:07:14.546Z,23.61
2018-12-10T13:09:43.581Z,23.60
2018-12-10T13:12:12.454Z,23.57
2018-12-10T13:14:41.030Z,23.61
2018-12-10T13:17:09.708Z,23.56
2018-12-10T13:19:38.777Z,23.62
2018-12-10T13:22:07.525Z,23.62
2018-12-10T13:24:36.071Z,23.61
2018-12-10T13:27:05.020Z,23.63
2018-12-10T13:29:33.847Z,23.62
2018-12-10T13:32:03.189Z,23.62
2018-12-10T13:34:32.102Z,23.59
2018-12-10T13:37:00.761Z,23.56
2018-12-10T13:39:29.507Z,23.58
2018-12-10T13:41:58.168Z,23.58
2018-12-10T13:44:26.826Z,23.61
2018-12-10T13:46:55.788Z,23.58
2018-12-10T13:49:24.583Z,23.60
2018-12-10T13:51:53.259Z,23.57
2018-12-10T13:54:21.731Z,23.58
2018-12-10T13:56:50.372Z,23.55
2018-12-10T13:59:19.103Z,23.56
2018-12-10T14:01:47.714Z,23.58
2018-12-10T14:04:22.466Z,23.55
2018-12-10T14:06:50.894Z,23.58
2018-12-10T14:09:19.642Z,23.61
2018-12-10T14:11:48.423Z,23.56
2018-12-10T14:14:17.071Z,23.57
2018-12-10T14:16:45.554Z,23.54
2018-12-10T14:19:14.098Z,23.57
2018-12-10T14:21:42.671Z,23.55
2018-12-10T14:24:11.215Z,23.56
2018-12-10T14:26:39.691Z,23.55
2018-12-10T14:29:08.502Z,23.56
2018-12-10T14:31:36.927Z,23.55
2018-12-10T14:34:11.038Z,23.56
2018-12-10T14:36:39.720Z,23.56
2018-12-10T14:39:10.406Z,23.55
2018-12-10T14:41:38.986Z,23.57
2018-12-10T14:44:07.706Z,23.58
2018-12-10T14:46:36.298Z,23.57
2018-12-10T14:49:05.187Z,23.56
2018-12-10T14:51:33.774Z,23.56
2018-12-10T14:54:02.387Z,23.55
2018-12-10T14:56:31.051Z,23.60
2018-12-10T14:58:59.627Z,23.60
2018-12-10T15:01:28.170Z,23.57
2018-12-10T15:03:56.744Z,23.55
2018-12-10T15:06:25.330Z,23.57
2018-12-10T15:08:54.103Z,23.55
2018-12-10T15:11:22.780Z,23.54
2018-12-10T15:13:51.270Z,23.56
2018-12-10T15:16:19.950Z,23.56
2018-12-10T15:18:48.723Z,23.60
2018-12-10T15:21:17.406Z,23.56
2018-12-10T15:23:45.875Z,23.56
2018-12-10T15:26:14.483Z,23.56
2018-12-10T15:28:43.030Z,23.57
2018-12-10T15:31:11.722Z,23.58
2018-12-10T15:33:40.524Z,23.57
2018-12-10T15:36:09.198Z,23.55
2018-12-10T15:38:37.875Z,23.57
2018-12-10T15:41:06.626Z,23.57
2018-12-10T15:43:35.105Z,23.55
2018-12-10T15:46:03.793Z,23.54
2018-12-10T15:48:32.302Z,23.54
2018-12-10T15:51:00.894Z,23.53
2018-12-10T15:53:29.610Z,23.56
2018-12-10T15:55:58.158Z,23.57
2018-12-10T15:58:26.963Z,23.57
2018-12-10T16:00:55.414Z,23.58
2018-12-10T16:03:24.181Z,23.56
2018-12-10T16:05:52.811Z,23.57
2018-12-10T16:08:21.490Z,23.56
2018-12-10T16:10:50.174Z,23.56
2018-12-10T16:13:18.827Z,23.56
2018-12-10T16:15:47.251Z,23.44
2018-12-10T16:18:15.912Z,23.49
2018-12-10T16:20:44.334Z,23.43
2018-12-10T16:23:12.910Z,23.46
2018-12-10T16:25:41.482Z,23.41
2018-12-10T16:28:10.015Z,23.37
2018-12-10T16:30:38.954Z,23.36
2018-12-10T16:33:07.703Z,23.39
2018-12-10T16:35:36.412Z,23.36
2018-12-10T16:38:04.851Z,23.41
2018-12-10T16:40:33.704Z,23.43
2018-12-10T16:43:02.259Z,23.38
2018-12-10T16:45:31.024Z,23.37
2018-12-10T16:47:59.638Z,23.32
2018-12-10T16:50:28.311Z,23.31
2018-12-10T16:52:56.978Z,23.33
2018-12-10T16:55:25.607Z,23.31
2018-12-10T16:57:54.279Z,23.34
2018-12-10T17:00:23.182Z,23.35
2018-12-10T17:02:51.815Z,23.35
2018-12-10T17:05:22.286Z,23.35
2018-12-10T17:07:51.263Z,23.34
2018-12-10T17:10:20.281Z,23.33
2018-12-10T17:12:48.947Z,23.28
2018-12-10T17:15:17.543Z,23.28
2018-12-10T17:17:46.424Z,23.31
2018-12-10T17:20:15.332Z,23.32
2018-12-10T17:22:43.990Z,23.35
2018-12-10T17:25:12.674Z,23.28
2018-12-10T17:27:41.451Z,23.32
2018-12-10T17:30:10.218Z,23.29
2018-12-10T17:32:38.830Z,23.27
2018-12-10T17:35:07.971Z,23.26
2018-12-10T17:37:36.538Z,23.28
2018-12-10T17:40:05.492Z,23.26
2018-12-10T17:42:34.084Z,23.25
2018-12-10T17:45:02.639Z,23.29
2018-12-10T17:47:31.430Z,23.32
2018-12-10T17:50:00.522Z,23.32
2018-12-10T17:52:29.142Z,23.34
2018-12-10T17:54:57.752Z,23.32
2018-12-10T17:57:26.524Z,23.31
2018-12-10T17:59:55.438Z,23.29
2018-12-10T18:02:24.025Z,23.27
2018-12-10T18:04:52.550Z,23.27
2018-12-10T18:07:21.034Z,23.29
2018-12-10T18:09:49.809Z,23.23
2018-12-10T18:12:18.362Z,23.29
2018-12-10T18:14:46.931Z,23.27
2018-12-10T18:17:15.787Z,23.25
2018-12-10T18:19:44.385Z,23.26
2018-12-10T18:22:12.995Z,23.25
2018-12-10T18:24:41.731Z,23.24
2018-12-10T18:27:10.154Z,23.25
2018-12-10T18:29:38.943Z,23.26
2018-12-10T18:32:07.686Z,23.24
2018-12-10T18:34:36.370Z,23.27
2018-12-10T18:37:04.946Z,23.29
2018-12-10T18:39:33.938Z,23.29
2018-12-10T18:42:02.664Z,23.26
2018-12-10T18:44:31.289Z,23.26
2018-12-10T18:46:59.994Z,23.25
2018-12-10T18:49:28.726Z,23.27
2018-12-10T18:51:57.516Z,23.27
2018-12-10T18:54:26.318Z,23.31
2018-12-10T18:56:54.936Z,23.28
2018-12-10T18:59:23.919Z,23.27
2018-12-10T19:01:52.603Z,23.26
2018-12-10T19:04:21.281Z,23.24
2018-12-10T19:06:49.946Z,23.23
2018-12-10T19:09:18.746Z,23.27
2018-12-10T19:11:47.362Z,23.25
2018-12-10T19:14:15.950Z,23.28
2018-12-10T19:16:44.679Z,23.29
2018-12-10T19:19:13.262Z,23.28
2018-12-10T19:21:41.960Z,23.28
2018-12-10T19:24:10.598Z,23.29
2018-12-10T19:26:39.144Z,23.29
2018-12-10T19:29:08.875Z,23.28
2018-12-10T19:31:37.630Z,23.26
2018-12-10T19:34:06.058Z,23.26
2018-12-10T19:36:34.490Z,23.27
2018-12-10T19:39:03.823Z,23.32
2018-12-10T19:41:32.437Z,23.36
2018-12-10T19:44:01.198Z,23.40
2018-12-10T19:46:29.690Z,23.46
2018-12-10T19:48:58.542Z,23.46
2018-12-10T19:51:27.254Z,23.49
2018-12-10T19:53:55.952Z,23.52
2018-12-10T19:56:24.474Z,23.53
2018-12-10T19:58:53.455Z,23.57
2018-12-10T20:01:21.940Z,23.56
2018-12-10T20:03:50.386Z,23.55
2018-12-10T20:06:34.271Z,23.57
2018-12-10T20:09:08.866Z,23.58
2018-12-10T20:11:37.463Z,23.61
2018-12-10T20:14:06.138Z,23.62
2018-12-10T20:16:34.584Z,23.65
2018-12-10T20:19:03.072Z,23.65
2018-12-10T20:21:31.518Z,23.66
2018-12-10T20:23:59.938Z,23.66
2018-12-10T20:26:28.764Z,23.62
2018-12-10T20:28:57.411Z,23.58
2018-12-10T20:31:26.117Z,23.54
2018-12-10T20:33:54.795Z,23.52
2018-12-10T20:36:23.680Z,23.50
2018-12-10T20:38:52.378Z,23.47
2018-12-10T20:41:21.462Z,23.47
2018-12-10T20:43:50.027Z,23.44
2018-12-10T20:46:18.534Z,23.48
2018-12-10T20:48:47.194Z,23.44
2018-12-10T20:51:15.694Z,23.44
2018-12-10T20:53:44.256Z,23.42
2018-12-10T20:56:13.118Z,23.42
2018-12-10T20:58:41.732Z,23.43
2018-12-10T21:01:10.491Z,23.37
2018-12-10T21:03:38.957Z,23.42
2018-12-10T21:06:12.718Z,23.54
2018-12-10T21:08:41.675Z,23.56
2018-12-10T21:11:10.368Z,23.57
2018-12-10T21:13:38.937Z,23.62
2018-12-10T21:16:07.533Z,23.55
2018-12-10T21:18:36.359Z,23.55
2018-12-10T21:21:04.910Z,23.55
2018-12-10T21:23:33.598Z,23.53
2018-12-10T21:26:02.110Z,23.50
2018-12-10T21:28:30.599Z,23.46
2018-12-10T21:30:59.282Z,23.46
2018-12-10T21:33:27.846Z,23.51
2018-12-10T21:35:56.338Z,23.54
2018-12-10T21:38:25.059Z,23.55
2018-12-10T21:40:53.611Z,23.57
2018-12-10T21:43:22.438Z,23.59
2018-12-10T21:45:51.319Z,23.57
2018-12-10T21:48:20.069Z,23.53
2018-12-10T21:50:48.622Z,23.50
2018-12-10T21:53:17.377Z,23.50
2018-12-10T21:55:45.990Z,23.55
2018-12-10T21:58:14.415Z,23.53
2018-12-10T22:00:43.186Z,23.51
2018-12-10T22:03:11.608Z,23.54
2018-12-10T22:05:40.166Z,23.55
2018-12-10T22:08:08.838Z,23.52
2018-12-10T22:10:37.502Z,23.49
2018-12-10T22:13:05.945Z,23.48
2018-12-10T22:15:34.567Z,23.49
2018-12-10T22:18:03.274Z,23.48
2018-12-10T22:20:31.892Z,23.46
2018-12-10T22:23:00.482Z,23.48
2018-12-10T22:25:29.166Z,23.48
2018-12-10T22:27:57.586Z,23.49
2018-12-10T22:30:26.319Z,23.49
2018-12-10T22:32:55.066Z,23.47
2018-12-10T22:35:23.646Z,23.46
2018-12-10T22:37:52.448Z,23.48
2018-12-10T22:40:21.013Z,23.48
2018-12-10T22:42:49.627Z,23.47
2018-12-10T22:45:18.755Z,23.44
2018-12-10T22:47:47.290Z,23.44
2018-12-10T22:50:15.708Z,23.45
2018-12-10T22:52:44.258Z,23.44
2018-12-10T22:55:12.935Z,23.43
2018-12-10T22:57:41.527Z,23.45
2018-12-10T23:00:11.231Z,23.44
2018-12-10T23:02:39.710Z,23.46
2018-12-10T23:05:08.261Z,23.46
2018-12-10T23:07:36.954Z,23.46
2018-12-10T23:10:05.834Z,23.45
2018-12-10T23:12:34.422Z,23.45
2018-12-10T23:15:03.026Z,23.42
2018-12-10T23:17:31.574Z,23.44
2018-12-10T23:20:00.158Z,23.46
2018-12-10T23:22:28.695Z,23.44
2018-12-10T23:24:57.242Z,23.46
2018-12-10T23:27:25.918Z,23.45
2018-12-10T23:29:54.672Z,23.43
2018-12-10T23:32:23.354Z,23.44
2018-12-10T23:34:52.037Z,23.44
2018-12-10T23:37:20.794Z,23.43
2018-12-10T23:39:49.526Z,23.45
2018-12-10T23:42:18.079Z,23.41
2018-12-10T23:44:51.885Z,23.42
2018-12-10T23:47:20.595Z,23.43
2018-12-10T23:49:49.254Z,23.41
2018-12-10T23:52:17.875Z,23.40
2018-12-10T23:54:46.530Z,23.41
2018-12-10T23:57:15.084Z,23.36
2018-12-10T23:59:43.820Z,23.36
